Decoded Metar for CYKL (SCHEFFERVILLE in QC, CANADA) (IATA:YKL) | Meteo·Mobile Aviation Weather
aviador You're here:

CYKL Decoded Metar

SCHEFFERVILLE in QC, CANADA
Report Time2018-12-13 03:00:00
UTC Time2018-12-13 03:46:57
Flight Rules vfr VFR
Wind320° at 04 kt
W.Decomp.*RWY 36: 3.8 kt HW 1.2 kt LCW
W.Rank320° ranks 2
Current wind is below 320° avg. (8.9)
Visibility9999 m
Phenomena:N/A
Clouds:N/A
Expected CloudBase > 800 ft AGL from Temp-Dew spread
CeilingNone
Temp-23°C (ISA -35)
Dew Point-25°C (84% RH)
AAT-28.2°C
QNH1016 hPa
Density Alt-2,818 ft
Elevation1,709 ft
Report Wrong Elevation
Raw Report
CYKL 130300Z AUTO 32004KT 9SM CLR M23/M25 A3000 RMK SLP229=

Extra information for CYKL:More info

Metar Taf Metar & Taf Last 4 Metars F.Rules Stats Wind Profile Meteogram Temp Stats Airport Information Weather charts Add Link Nearby VenuesMetar ALERT Operation Metar Decoded Social comments